Time;durP1;ratioP1;P1;durP2;ratioP2;P2;SDS_P1;SDS_P2;PMS_P1;PMS_P2;Temp;Humidity;BMP_temperature;BMP_pressure;BME280_temperature;BME280_humidity;BME280_pressure;Samples;Min_cycle;Max_cycle;Signal;HPM_P1;HPM_P2
2023/06/07 00:01:12;;;;;;;5.87;3.57;;;;;;;23.24;52.85;100304.19;5027952;28;20233;-66
2023/06/07 00:03:37;;;;;;;5.10;3.50;;;;;;;23.24;53.25;100301.28;5020963;28;20239;-66
2023/06/07 00:06:05;;;;;;;7.57;3.37;;;;;;;23.24;53.43;100301.28;5006772;28;20200;-66
2023/06/07 00:08:31;;;;;;;8.20;3.37;;;;;;;23.24;52.93;100300.50;5015440;28;20181;-66
2023/06/07 00:10:56;;;;;;;4.67;3.20;;;;;;;23.23;53.46;100305.41;5027575;28;20461;-66
2023/06/07 00:13:22;;;;;;;5.03;3.57;;;;;;;23.22;53.26;100309.53;5023907;28;20715;-66
2023/06/07 00:15:47;;;;;;;4.47;3.47;;;;;;;23.22;53.35;100306.66;5011166;28;20533;-66
2023/06/07 00:18:15;;;;;;;9.80;3.50;;;;;;;23.23;52.95;100305.41;5021957;28;20211;-66
2023/06/07 00:20:44;;;;;;;6.57;3.30;;;;;;;23.22;53.24;100303.78;5012352;28;20911;-65
2023/06/07 00:23:10;;;;;;;5.30;3.40;;;;;;;23.21;53.13;100302.13;5028192;28;20458;-65
2023/06/07 00:25:35;;;;;;;6.47;3.57;;;;;;;23.21;53.32;100299.25;5028806;28;20427;-66
2023/06/07 00:28:01;;;;;;;5.03;3.77;;;;;;;23.21;53.04;100299.25;5026957;28;20835;-66
2023/06/07 00:30:26;;;;;;;5.40;3.70;;;;;;;23.20;53.51;100309.16;5008165;28;20584;-66
2023/06/07 00:32:52;;;;;;;5.37;3.50;;;;;;;23.20;53.21;100312.03;5024327;28;20176;-66
2023/06/07 00:35:17;;;;;;;6.23;3.97;;;;;;;23.20;53.32;100308.31;5025674;28;20199;-66
2023/06/07 00:37:43;;;;;;;6.30;3.63;;;;;;;23.20;53.54;100302.53;5021114;28;20180;-66
2023/06/07 00:40:09;;;;;;;3.93;3.23;;;;;;;23.19;53.44;100310.34;5026827;28;20683;-66
2023/06/07 00:42:35;;;;;;;4.00;2.93;;;;;;;23.19;53.47;100312.44;5024126;28;20921;-66
2023/06/07 00:45:00;;;;;;;5.10;3.10;;;;;;;23.19;53.38;100310.34;5010659;28;20439;-66
2023/06/07 00:47:26;;;;;;;5.10;3.47;;;;;;;23.18;53.43;100302.94;5016611;28;20181;-66
2023/06/07 00:49:52;;;;;;;4.93;3.20;;;;;;;23.19;53.44;100301.72;5042701;28;20189;-66
2023/06/07 00:52:18;;;;;;;5.17;3.40;;;;;;;23.19;53.35;100310.34;5021063;28;20517;-66
2023/06/07 00:54:43;;;;;;;7.00;3.47;;;;;;;23.19;53.27;100306.66;5028390;28;20184;-66
2023/06/07 00:57:09;;;;;;;4.17;3.30;;;;;;;23.18;53.32;100317.34;5011880;28;20192;-65
2023/06/07 00:59:35;;;;;;;6.50;3.60;;;;;;;23.18;53.15;100314.47;5030786;28;20200;-66
2023/06/07 01:02:01;;;;;;;4.90;3.33;;;;;;;23.17;53.27;100309.94;5013911;28;20173;-66
2023/06/07 01:04:29;;;;;;;4.47;3.03;;;;;;;23.17;53.21;100311.97;5021778;28;20668;-66
2023/06/07 01:06:54;;;;;;;5.57;3.43;;;;;;;23.17;53.13;100306.22;4994333;28;20450;-66
2023/06/07 01:09:20;;;;;;;5.13;3.30;;;;;;;23.17;53.45;100307.03;5026866;28;20519;-66
2023/06/07 01:11:47;;;;;;;6.27;3.57;;;;;;;23.18;53.35;100314.47;5013838;28;20689;-66
2023/06/07 01:14:13;;;;;;;5.23;3.57;;;;;;;23.17;52.93;100309.09;5017232;28;20223;-65
2023/06/07 01:16:39;;;;;;;5.13;3.37;;;;;;;23.16;53.46;100302.53;5013615;28;20560;-66
2023/06/07 01:19:05;;;;;;;5.43;3.30;;;;;;;23.15;53.08;100303.75;5026610;28;20262;-66
2023/06/07 01:21:32;;;;;;;5.93;2.93;;;;;;;23.15;53.38;100298.00;5025655;28;21001;-66
2023/06/07 01:23:59;;;;;;;4.03;3.00;;;;;;;23.16;53.12;100307.44;4997754;28;20196;-66
2023/06/07 01:26:26;;;;;;;7.10;4.20;;;;;;;23.13;53.51;100300.44;5013484;28;21229;-66
2023/06/07 01:28:52;;;;;;;5.30;4.10;;;;;;;23.14;53.18;100301.28;5010467;28;20427;-66
2023/06/07 01:31:17;;;;;;;4.70;3.23;;;;;;;23.14;52.87;100302.09;5012797;28;20474;-66
2023/06/07 01:33:43;;;;;;;4.30;3.30;;;;;;;23.14;53.19;100296.34;5044117;28;20180;-65
2023/06/07 01:36:08;;;;;;;6.10;3.30;;;;;;;23.14;53.29;100295.53;5027266;28;20620;-65
2023/06/07 01:38:34;;;;;;;5.87;4.03;;;;;;;23.14;53.05;100295.53;5044256;28;20224;-66
2023/06/07 01:40:59;;;;;;;6.90;2.80;;;;;;;23.13;53.09;100291.00;5026125;28;20212;-65
2023/06/07 01:43:25;;;;;;;6.23;3.20;;;;;;;23.12;53.07;100290.19;5014497;28;20180;-65
2023/06/07 01:45:51;;;;;;;4.40;2.90;;;;;;;23.13;53.13;100288.13;5013800;28;20180;-66
2023/06/07 01:48:18;;;;;;;3.97;2.93;;;;;;;23.12;53.22;100284.41;5030414;28;20184;-66
2023/06/07 01:50:43;;;;;;;4.40;3.20;;;;;;;23.11;53.50;100288.53;5025607;28;20930;-66
2023/06/07 01:53:09;;;;;;;6.33;3.80;;;;;;;23.12;52.95;100295.09;5030781;28;20450;-65
2023/06/07 01:55:35;;;;;;;4.60;3.17;;;;;;;23.11;53.36;100297.19;5019831;28;20243;-66
2023/06/07 01:58:04;;;;;;;6.27;3.70;;;;;;;23.12;52.97;100293.06;5008085;28;20664;-65
2023/06/07 02:00:33;;;;;;;4.57;3.20;;;;;;;23.11;53.17;100294.28;5011337;28;20446;-65
2023/06/07 02:03:01;;;;;;;4.00;3.07;;;;;;;23.11;53.07;100294.28;5023104;28;20447;-65
2023/06/07 02:05:41;;;;;;;4.93;3.50;;;;;;;23.10;53.15;100295.53;4993061;28;20452;-65
2023/06/07 02:08:30;;;;;;;4.20;2.90;;;;;;;23.10;53.09;100295.53;5023206;28;20497;-65
2023/06/07 02:10:56;;;;;;;4.40;2.93;;;;;;;23.10;53.42;100291.81;5022553;28;20935;-65
2023/06/07 02:13:21;;;;;;;5.83;3.50;;;;;;;23.09;53.16;100288.09;5013302;28;20447;-65
2023/06/07 02:15:47;;;;;;;4.60;3.33;;;;;;;23.09;53.26;100293.88;4991265;28;20174;-66
2023/06/07 02:18:12;;;;;;;4.37;3.43;;;;;;;23.09;53.15;100291.00;4991060;28;20224;-65
2023/06/07 02:20:38;;;;;;;5.80;3.43;;;;;;;23.09;53.06;100298.81;4991579;28;20182;-66
2023/06/07 02:23:03;;;;;;;4.40;3.30;;;;;;;23.08;53.26;100298.00;4993495;28;20556;-66
2023/06/07 02:25:30;;;;;;;5.50;3.30;;;;;;;23.07;52.87;100296.34;4973351;28;20232;-66
2023/06/07 02:27:57;;;;;;;5.50;3.50;;;;;;;23.07;53.30;100296.34;5007513;28;20530;-66
2023/06/07 02:30:22;;;;;;;5.67;3.60;;;;;;;23.07;52.88;100299.22;4994775;28;20479;-66
2023/06/07 02:32:49;;;;;;;5.43;3.23;;;;;;;23.07;52.81;100293.47;4994058;28;20436;-65
2023/06/07 02:35:18;;;;;;;4.50;3.13;;;;;;;23.07;53.01;100292.63;5001175;28;20177;-66
2023/06/07 02:37:43;;;;;;;4.70;3.20;;;;;;;23.06;53.40;100288.94;5008447;28;20436;-65
2023/06/07 02:40:10;;;;;;;5.83;3.50;;;;;;;23.05;53.28;100298.84;5009597;28;20455;-65
2023/06/07 02:42:36;;;;;;;5.07;3.57;;;;;;;23.06;52.96;100303.34;4998175;28;20201;-65
2023/06/07 02:45:02;;;;;;;4.20;2.73;;;;;;;23.04;53.30;100300.06;4995124;28;20607;-66
2023/06/07 02:47:29;;;;;;;6.30;3.80;;;;;;;23.05;53.23;100298.00;4992818;28;20455;-65
2023/06/07 02:49:55;;;;;;;4.90;2.93;;;;;;;23.05;53.31;100295.13;4991078;28;20467;-65
2023/06/07 02:52:21;;;;;;;5.63;3.13;;;;;;;23.04;53.37;100300.06;5004323;28;20817;-65
2023/06/07 02:54:46;;;;;;;4.10;3.03;;;;;;;23.03;52.93;100298.41;5008011;28;20435;-65
2023/06/07 02:57:12;;;;;;;5.90;3.00;;;;;;;23.03;53.25;100295.53;4999734;28;20433;-65
2023/06/07 02:59:39;;;;;;;4.93;3.30;;;;;;;23.03;53.23;100294.72;4991319;28;20213;-66
2023/06/07 03:02:05;;;;;;;4.30;3.00;;;;;;;23.03;53.15;100300.47;5000426;28;20283;-66
2023/06/07 03:04:31;;;;;;;4.93;3.30;;;;;;;23.02;53.36;100301.72;5005335;28;20439;-65
2023/06/07 03:06:56;;;;;;;5.23;2.80;;;;;;;23.03;53.26;100309.91;5004458;28;20570;-65
2023/06/07 03:09:22;;;;;;;4.97;3.27;;;;;;;23.03;53.40;100297.59;5010464;28;20205;-66
2023/06/07 03:11:48;;;;;;;6.37;4.03;;;;;;;23.02;53.25;100308.28;5010622;28;20640;-65
2023/06/07 03:14:14;;;;;;;4.43;2.80;;;;;;;23.02;53.19;100310.34;5007620;28;20287;-65
2023/06/07 03:16:40;;;;;;;4.20;3.23;;;;;;;23.01;53.13;100306.66;5010099;28;20503;-65
2023/06/07 03:19:06;;;;;;;5.30;3.00;;;;;;;23.00;53.24;100299.25;5013226;28;20197;-65
2023/06/07 03:21:31;;;;;;;5.10;3.10;;;;;;;23.00;53.46;100293.47;5029434;28;20199;-65
2023/06/07 03:23:56;;;;;;;5.80;3.40;;;;;;;23.00;53.21;100302.13;4998473;28;20927;-65
2023/06/07 03:26:22;;;;;;;6.17;3.23;;;;;;;23.01;53.23;100305.81;5007499;28;20873;-65
2023/06/07 03:28:48;;;;;;;3.53;2.73;;;;;;;23.00;53.07;100310.75;5015026;28;20663;-65
2023/06/07 03:31:13;;;;;;;3.60;2.80;;;;;;;22.99;53.18;100303.38;5030049;28;20192;-65
2023/06/07 03:33:40;;;;;;;12.40;2.93;;;;;;;22.98;52.91;100307.44;5029288;28;20164;-65
2023/06/07 03:36:07;;;;;;;4.50;3.20;;;;;;;22.99;52.96;100317.75;5005719;28;20184;-66
2023/06/07 03:38:33;;;;;;;4.70;3.40;;;;;;;22.98;53.49;100321.03;5019967;28;21337;-66
2023/06/07 03:40:58;;;;;;;3.93;3.07;;;;;;;22.98;53.16;100307.44;5026738;28;20435;-66
2023/06/07 03:43:24;;;;;;;5.80;3.17;;;;;;;22.98;53.31;100321.84;5020756;28;20189;-66
2023/06/07 03:45:49;;;;;;;4.53;3.10;;;;;;;22.98;53.37;100316.09;5008071;28;20529;-66
2023/06/07 03:48:15;;;;;;;4.33;2.83;;;;;;;22.98;53.05;100316.09;5008162;28;20192;-65
2023/06/07 03:50:40;;;;;;;4.80;3.27;;;;;;;22.97;53.56;100317.34;5010313;28;20176;-66
2023/06/07 03:53:05;;;;;;;4.77;3.30;;;;;;;22.97;53.27;100308.69;5010774;28;20181;-66
2023/06/07 03:55:31;;;;;;;4.70;3.00;;;;;;;22.97;53.48;100313.66;5027011;28;20184;-66
2023/06/07 03:57:57;;;;;;;4.10;3.17;;;;;;;22.96;53.38;100307.06;5008142;28;20181;-66
2023/06/07 04:00:26;;;;;;;4.50;2.87;;;;;;;22.95;53.46;100316.94;5020247;28;20214;-66
2023/06/07 04:02:53;;;;;;;5.73;3.60;;;;;;;22.96;53.04;100307.06;5028267;28;20477;-66
2023/06/07 04:05:18;;;;;;;4.30;3.00;;;;;;;22.96;53.12;100311.97;5012439;28;20515;-66
2023/06/07 04:07:46;;;;;;;5.77;3.77;;;;;;;22.96;53.23;100318.56;5027792;28;20431;-66
2023/06/07 04:10:11;;;;;;;4.67;3.30;;;;;;;22.94;53.26;100309.53;5027536;28;20279;-65
2023/06/07 04:12:37;;;;;;;3.90;2.93;;;;;;;22.94;53.24;100306.66;5009539;28;20809;-66
2023/06/07 04:15:03;;;;;;;7.53;3.33;;;;;;;22.95;53.05;100314.06;5023458;28;20228;-66
2023/06/07 04:17:28;;;;;;;4.00;3.10;;;;;;;22.94;53.40;100312.41;5009209;28;20254;-66
2023/06/07 04:19:56;;;;;;;4.03;2.90;;;;;;;22.95;53.29;100310.34;5020438;28;20197;-66
2023/06/07 04:22:22;;;;;;;3.83;2.83;;;;;;;22.94;53.62;100309.53;5010768;28;20196;-66
2023/06/07 04:24:48;;;;;;;4.87;3.10;;;;;;;22.94;53.16;100309.53;5024966;28;20557;-66
2023/06/07 04:27:18;;;;;;;4.80;3.50;;;;;;;22.94;53.41;100314.47;5024732;28;20921;-66
2023/06/07 04:29:43;;;;;;;4.17;2.83;;;;;;;22.94;53.48;100323.09;5017258;28;20444;-63
2023/06/07 04:32:09;;;;;;;4.07;3.00;;;;;;;22.94;53.56;100321.06;5027266;28;21024;-63
2023/06/07 04:34:41;;;;;;;4.60;3.20;;;;;;;22.93;53.30;100318.56;5019973;28;20192;-63
2023/06/07 04:37:08;;;;;;;4.67;2.93;;;;;;;22.94;53.27;100317.34;5008632;28;20431;-64
2023/06/07 04:39:36;;;;;;;5.73;3.43;;;;;;;22.96;53.79;100329.25;5025730;28;20927;-64
2023/06/07 04:42:05;;;;;;;5.40;3.30;;;;;;;22.97;53.72;100323.09;5022218;28;20522;-63
2023/06/07 04:44:30;;;;;;;6.20;3.10;;;;;;;22.96;53.67;100318.56;5018962;28;20479;-63
2023/06/07 04:46:57;;;;;;;5.60;3.07;;;;;;;22.97;53.77;100317.34;5018850;28;20468;-64
2023/06/07 04:49:23;;;;;;;5.47;2.97;;;;;;;22.98;53.58;100323.94;5020918;28;20185;-65
2023/06/07 04:51:50;;;;;;;4.10;2.73;;;;;;;22.97;53.47;100325.97;5005961;28;20431;-64
2023/06/07 04:54:16;;;;;;;5.83;3.40;;;;;;;22.97;53.77;100317.34;5010837;28;20444;-65
2023/06/07 04:56:42;;;;;;;5.10;3.13;;;;;;;22.95;53.76;100322.69;5023407;28;20431;-65
2023/06/07 04:59:08;;;;;;;7.63;3.20;;;;;;;22.95;53.65;100311.16;5022440;28;20492;-65
2023/06/07 05:01:34;;;;;;;4.17;2.93;;;;;;;22.96;53.84;100324.31;5018492;28;20195;-65
2023/06/07 05:04:00;;;;;;;4.20;2.70;;;;;;;22.97;53.87;100316.53;5024397;28;20426;-65
2023/06/07 05:06:28;;;;;;;5.47;3.00;;;;;;;22.96;54.00;100315.69;5024774;28;20212;-65
2023/06/07 05:08:54;;;;;;;4.63;2.90;;;;;;;22.98;53.73;100321.84;5021234;28;20218;-65
2023/06/07 05:11:20;;;;;;;6.40;3.43;;;;;;;22.98;53.30;100315.28;5008352;28;20954;-65
2023/06/07 05:13:46;;;;;;;4.57;2.83;;;;;;;22.98;54.13;100321.84;5010684;28;20546;-65
2023/06/07 05:16:16;;;;;;;5.00;3.10;;;;;;;22.99;53.83;100319.81;5018703;28;20184;-65
2023/06/07 05:18:48;;;;;;;4.80;3.10;;;;;;;22.99;54.16;100311.16;5023251;28;20459;-65
2023/06/07 05:21:15;;;;;;;4.73;3.80;;;;;;;22.99;54.08;100317.75;5019183;28;20447;-65
2023/06/07 05:23:41;;;;;;;4.33;3.00;;;;;;;23.00;53.71;100319.41;5013394;28;20993;-65
2023/06/07 05:26:07;;;;;;;5.30;2.83;;;;;;;23.02;53.96;100305.41;5014919;28;20926;-65
2023/06/07 05:28:32;;;;;;;4.90;3.30;;;;;;;23.04;53.65;100313.63;5016044;28;20434;-65
2023/06/07 05:30:58;;;;;;;4.53;2.67;;;;;;;23.03;54.06;100309.91;5016968;28;20184;-65
2023/06/07 05:33:25;;;;;;;3.73;2.60;;;;;;;23.03;53.99;100315.69;5017466;28;20169;-65
2023/06/07 05:35:50;;;;;;;4.57;3.37;;;;;;;23.01;53.58;100315.28;5019600;28;20424;-65
2023/06/07 05:38:16;;;;;;;3.70;2.67;;;;;;;23.01;53.88;100323.91;5023622;28;20451;-65
2023/06/07 05:40:41;;;;;;;3.93;2.53;;;;;;;23.01;53.67;100325.97;5011483;28;20229;-65
2023/06/07 05:43:07;;;;;;;8.73;3.40;;;;;;;23.00;54.25;100327.19;5017861;28;20191;-65
2023/06/07 05:45:32;;;;;;;9.00;3.07;;;;;;;22.99;54.55;100319.81;5029123;28;20188;-65
2023/06/07 05:47:58;;;;;;;4.83;2.70;;;;;;;22.97;53.67;100325.97;5013125;28;20185;-65
2023/06/07 05:50:24;;;;;;;5.07;3.27;;;;;;;22.96;54.24;100324.31;5019529;28;20316;-65
2023/06/07 05:52:57;;;;;;;6.30;3.60;;;;;;;23.17;54.96;100332.97;5021301;28;20204;-66
2023/06/07 05:55:26;;;;;;;12.33;5.00;;;;;;;23.54;57.75;100330.47;5013479;28;20195;-66
2023/06/07 05:57:51;;;;;;;9.23;5.57;;;;;;;23.54;57.84;100326.78;5026331;28;20436;-64
2023/06/07 06:00:17;;;;;;;6.17;4.70;;;;;;;23.37;57.75;100319.81;5033722;28;20465;-66
2023/06/07 06:02:45;;;;;;;7.47;4.23;;;;;;;23.24;56.44;100327.22;5025952;28;20238;-65
2023/06/07 06:05:11;;;;;;;9.27;3.40;;;;;;;23.17;55.41;100326.38;5026870;28;20189;-65
2023/06/07 06:07:37;;;;;;;10.17;3.80;;;;;;;23.18;54.56;100322.31;5015942;28;20439;-66
2023/06/07 06:10:04;;;;;;;9.43;4.00;;;;;;;23.15;55.21;100329.69;5025180;28;20470;-65
2023/06/07 06:12:30;;;;;;;10.27;3.60;;;;;;;23.17;55.54;100324.31;5026827;28;20618;-66
2023/06/07 06:14:55;;;;;;;7.80;3.80;;;;;;;23.12;54.86;100333.38;5019851;28;20474;-66
2023/06/07 06:17:22;;;;;;;7.00;3.40;;;;;;;23.12;55.32;100332.53;5018238;28;20432;-66
2023/06/07 06:19:47;;;;;;;5.53;3.53;;;;;;;23.08;55.81;100331.75;5022094;28;20295;-64
2023/06/07 06:22:12;;;;;;;8.03;3.90;;;;;;;23.15;56.01;100325.97;5037318;28;20485;-65
2023/06/07 06:24:38;;;;;;;14.97;3.97;;;;;;;23.18;55.81;100325.19;5028670;28;20644;-64
2023/06/07 06:27:06;;;;;;;5.50;3.23;;;;;;;23.17;55.46;100324.31;5012770;28;20526;-66
2023/06/07 06:29:31;;;;;;;6.03;3.90;;;;;;;23.18;55.56;100328.88;5021138;28;20642;-64
2023/06/07 06:31:57;;;;;;;5.60;3.70;;;;;;;23.19;55.27;100333.41;5016234;28;20460;-65
2023/06/07 06:34:23;;;;;;;6.33;3.77;;;;;;;23.17;55.56;100330.09;5031625;28;20219;-65
2023/06/07 06:36:49;;;;;;;9.30;3.87;;;;;;;23.13;55.69;100340.78;5039382;28;20173;-65
2023/06/07 06:39:15;;;;;;;9.73;3.70;;;;;;;23.16;55.58;100328.44;5040831;28;20487;-66
2023/06/07 06:41:40;;;;;;;6.23;3.77;;;;;;;23.18;56.19;100336.72;5036745;28;20192;-65
2023/06/07 06:44:05;;;;;;;6.23;3.70;;;;;;;23.18;55.88;100340.41;5029365;28;20192;-65
2023/06/07 06:46:31;;;;;;;8.63;2.97;;;;;;;23.15;55.96;100343.25;5034453;28;20169;-66
2023/06/07 06:48:56;;;;;;;7.77;3.47;;;;;;;23.12;56.19;100333.38;5038225;28;20325;-65
2023/06/07 06:51:22;;;;;;;7.20;3.77;;;;;;;23.11;56.44;100343.25;5035396;28;20214;-65
2023/06/07 06:53:47;;;;;;;7.57;2.90;;;;;;;23.12;55.53;100339.13;5047710;28;20197;-64
2023/06/07 06:56:13;;;;;;;4.70;3.17;;;;;;;23.16;55.60;100339.97;5053768;28;20162;-64
2023/06/07 06:58:38;;;;;;;8.13;3.70;;;;;;;23.19;55.13;100341.25;5049274;28;20222;-65
2023/06/07 07:01:07;;;;;;;6.37;3.90;;;;;;;23.20;55.23;100340.84;5043080;28;20222;-65
2023/06/07 07:03:33;;;;;;;6.80;3.30;;;;;;;23.21;55.02;100342.47;5054926;28;20358;-65
2023/06/07 07:05:58;;;;;;;6.13;3.50;;;;;;;23.21;54.84;100336.72;5051193;28;20420;-65
2023/06/07 07:08:24;;;;;;;5.23;2.90;;;;;;;23.20;55.31;100340.84;5051096;28;20181;-65
2023/06/07 07:10:50;;;;;;;5.33;3.00;;;;;;;23.19;55.54;100332.59;5037638;28;20196;-66
2023/06/07 07:13:15;;;;;;;6.87;2.93;;;;;;;23.17;55.26;100335.00;5020619;28;20180;-67
2023/06/07 07:15:41;;;;;;;7.70;3.40;;;;;;;23.17;55.56;100329.25;5020406;28;20221;-66
2023/06/07 07:18:07;;;;;;;7.17;3.37;;;;;;;23.13;55.63;100340.78;5032586;28;21142;-66
2023/06/07 07:20:33;;;;;;;7.93;3.60;;;;;;;23.12;55.71;100350.66;5031884;28;20311;-65
2023/06/07 07:23:01;;;;;;;4.53;3.00;;;;;;;23.10;55.08;100337.91;5029933;28;20457;-66
2023/06/07 07:25:27;;;;;;;7.73;3.70;;;;;;;23.10;55.51;100347.38;5021483;28;20165;-65
2023/06/07 07:27:52;;;;;;;8.80;3.27;;;;;;;23.15;55.96;100346.97;5022595;28;20430;-66
2023/06/07 07:30:18;;;;;;;7.13;3.00;;;;;;;23.19;55.33;100339.16;5026461;28;20512;-65
2023/06/07 07:32:43;;;;;;;6.63;2.97;;;;;;;23.20;54.59;100332.19;5016268;28;20666;-65
2023/06/07 07:35:09;;;;;;;5.43;3.13;;;;;;;23.17;55.09;100335.84;5027991;28;20171;-65
2023/06/07 07:37:35;;;;;;;7.40;3.20;;;;;;;23.14;55.16;100348.19;5022517;28;20521;-65
2023/06/07 07:40:01;;;;;;;4.90;3.13;;;;;;;23.13;55.05;100349.41;5010611;28;20192;-65
2023/06/07 07:42:26;;;;;;;4.83;2.83;;;;;;;23.12;55.21;100342.03;5024030;28;20184;-65
2023/06/07 07:44:52;;;;;;;5.53;2.73;;;;;;;23.10;55.10;100338.75;5024143;28;20183;-65
2023/06/07 07:47:17;;;;;;;4.80;2.90;;;;;;;23.09;54.46;100339.16;5022133;28;20196;-65
2023/06/07 07:49:43;;;;;;;3.57;2.50;;;;;;;23.09;54.95;100339.94;5017665;28;20196;-65
2023/06/07 07:52:09;;;;;;;5.43;2.83;;;;;;;23.06;54.90;100337.91;5017970;28;20188;-65
2023/06/07 07:54:35;;;;;;;12.57;2.80;;;;;;;23.09;55.31;100342.03;5015025;28;20189;-65
2023/06/07 07:57:01;;;;;;;14.70;3.83;;;;;;;23.08;55.14;100344.06;5025931;28;20180;-65
2023/06/07 07:59:26;;;;;;;5.20;2.27;;;;;;;23.13;55.42;100343.66;5013309;28;20197;-65
2023/06/07 08:01:52;;;;;;;7.90;2.60;;;;;;;23.13;55.79;100335.03;5011187;28;21061;-65
2023/06/07 08:04:17;;;;;;;5.90;3.37;;;;;;;23.15;55.78;100343.25;5007344;28;20158;-65
2023/06/07 08:06:42;;;;;;;6.70;2.70;;;;;;;23.15;55.57;100352.72;5022361;28;20180;-65
2023/06/07 08:09:09;;;;;;;4.80;2.80;;;;;;;23.15;55.83;100344.09;5011534;28;20200;-65
2023/06/07 08:11:35;;;;;;;9.33;2.80;;;;;;;23.17;55.28;100347.38;5012651;28;20191;-65
2023/06/07 08:14:01;;;;;;;4.80;2.50;;;;;;;23.16;55.80;100339.97;5021404;28;20775;-65
2023/06/07 08:16:26;;;;;;;6.40;2.97;;;;;;;23.16;55.69;100347.78;5007858;28;20177;-65
2023/06/07 08:18:56;;;;;;;5.90;2.57;;;;;;;23.16;55.67;100333.38;5010034;28;20213;-65
2023/06/07 08:21:22;;;;;;;9.57;3.30;;;;;;;23.16;55.59;100337.09;5007077;28;20653;-65
2023/06/07 08:23:48;;;;;;;3.90;2.57;;;;;;;23.16;56.17;100337.09;5020349;28;20542;-65
2023/06/07 08:26:14;;;;;;;3.77;2.20;;;;;;;23.17;56.09;100332.97;5023355;28;20955;-65
2023/06/07 08:28:40;;;;;;;7.30;3.53;;;;;;;23.17;55.85;100332.97;5021788;28;20668;-65
2023/06/07 08:31:05;;;;;;;5.00;2.70;;;;;;;23.18;55.83;100328.06;5019766;28;20440;-65
2023/06/07 08:33:31;;;;;;;6.80;2.50;;;;;;;23.17;55.83;100329.25;5009507;28;20192;-65
2023/06/07 08:35:56;;;;;;;5.43;2.87;;;;;;;23.18;55.71;100326.00;5012078;28;20195;-65
2023/06/07 08:38:22;;;;;;;4.27;2.50;;;;;;;23.17;55.79;100329.25;5010323;28;20192;-65
2023/06/07 08:40:47;;;;;;;6.80;2.90;;;;;;;23.17;56.14;100335.84;5022152;28;20181;-65
2023/06/07 08:43:12;;;;;;;4.33;2.80;;;;;;;23.18;55.87;100333.84;5021049;28;20187;-65
2023/06/07 08:45:38;;;;;;;4.13;2.47;;;;;;;23.18;55.92;100339.59;5041391;28;20180;-65
2023/06/07 08:48:06;;;;;;;5.93;2.70;;;;;;;23.17;56.29;100332.97;5015095;28;20184;-65
2023/06/07 08:50:31;;;;;;;3.63;2.37;;;;;;;23.17;55.87;100330.09;5021938;28;20176;-65
2023/06/07 08:52:57;;;;;;;10.53;2.60;;;;;;;23.17;56.18;100332.97;5005655;28;20896;-65
2023/06/07 08:55:24;;;;;;;6.93;2.57;;;;;;;23.17;56.27;100327.22;5005467;28;20636;-66
2023/06/07 08:57:55;;;;;;;3.70;2.20;;;;;;;23.18;55.91;100337.53;4989781;28;20185;-65
2023/06/07 09:00:24;;;;;;;9.67;2.70;;;;;;;23.18;56.19;100326.00;5007445;28;20486;-65
2023/06/07 09:02:53;;;;;;;8.40;2.70;;;;;;;23.19;56.07;100332.59;5005685;28;20487;-65
2023/06/07 09:05:22;;;;;;;4.50;2.73;;;;;;;23.19;56.30;100333.41;5008581;28;20467;-65
2023/06/07 09:07:50;;;;;;;5.87;2.53;;;;;;;23.20;56.11;100335.06;5025162;28;20467;-65
2023/06/07 09:10:17;;;;;;;7.33;2.90;;;;;;;23.19;56.47;100330.53;5012951;28;20435;-65
2023/06/07 09:12:46;;;;;;;4.60;2.70;;;;;;;23.20;56.04;100322.72;5028851;28;20839;-65
2023/06/07 09:15:21;;;;;;;4.47;2.53;;;;;;;23.20;56.27;100325.59;5010533;28;20468;-65
2023/06/07 09:17:58;;;;;;;4.33;2.63;;;;;;;23.20;56.36;100334.22;5012307;28;20443;-65
2023/06/07 09:20:25;;;;;;;6.03;2.60;;;;;;;23.20;56.39;100329.31;5027744;28;20470;-65
2023/06/07 09:23:04;;;;;;;4.07;2.50;;;;;;;23.21;56.24;100330.94;5023511;28;20447;-65
2023/06/07 09:25:30;;;;;;;6.07;2.53;;;;;;;23.20;55.83;100323.53;5015847;28;20923;-65
2023/06/07 09:27:56;;;;;;;3.43;2.63;;;;;;;23.21;55.89;100333.00;5023599;28;20435;-65
2023/06/07 09:30:21;;;;;;;4.70;2.47;;;;;;;23.21;56.41;100339.59;5026084;28;20177;-65
2023/06/07 09:32:47;;;;;;;4.60;3.00;;;;;;;23.22;56.33;100328.88;5010975;28;20458;-65
2023/06/07 09:35:14;;;;;;;8.40;2.40;;;;;;;23.21;56.25;100328.06;5010407;28;20947;-65
2023/06/07 09:37:44;;;;;;;3.93;2.53;;;;;;;23.22;56.34;100332.59;5023071;28;20551;-65
2023/06/07 09:40:10;;;;;;;5.07;2.67;;;;;;;23.22;56.03;100328.88;5013145;28;20468;-65
2023/06/07 09:42:35;;;;;;;4.17;3.00;;;;;;;23.22;56.30;100332.59;5012769;28;20993;-65
2023/06/07 09:45:14;;;;;;;5.67;2.80;;;;;;;23.23;55.75;100334.22;5026339;28;20184;-65
2023/06/07 09:47:43;;;;;;;5.90;2.70;;;;;;;23.23;56.14;100322.69;5008736;28;20243;-65
2023/06/07 09:50:09;;;;;;;5.17;2.40;;;;;;;23.23;55.96;100331.34;5017999;28;20608;-65
2023/06/07 09:52:35;;;;;;;4.83;2.37;;;;;;;23.23;56.04;100331.34;5029814;28;20822;-65
2023/06/07 09:55:02;;;;;;;4.47;2.70;;;;;;;23.24;55.95;100329.31;5023731;28;20439;-65
2023/06/07 09:57:28;;;;;;;3.20;2.23;;;;;;;23.24;56.32;100323.53;5029756;28;20511;-65
2023/06/07 09:59:58;;;;;;;5.27;2.40;;;;;;;23.24;56.05;100335.06;5016383;28;20534;-65
2023/06/07 10:02:27;;;;;;;4.87;2.20;;;;;;;23.24;56.19;100332.97;5016823;28;20451;-65
2023/06/07 10:04:56;;;;;;;4.13;2.40;;;;;;;23.25;55.85;100319.41;5019218;28;20423;-65
2023/06/07 10:07:25;;;;;;;3.60;2.10;;;;;;;23.25;55.67;100326.00;5021393;28;20455;-65
2023/06/07 10:09:53;;;;;;;6.47;2.67;;;;;;;23.24;55.83;100318.59;5024353;28;20439;-65
2023/06/07 10:12:19;;;;;;;4.70;2.47;;;;;;;23.25;55.84;100313.66;5016629;28;20435;-65
2023/06/07 10:14:48;;;;;;;3.40;2.57;;;;;;;23.25;55.54;100316.53;5009654;28;20567;-65
2023/06/07 10:17:14;;;;;;;3.80;2.50;;;;;;;23.24;55.85;100304.19;5013232;28;21017;-65
2023/06/07 10:19:47;;;;;;;5.30;3.00;;;;;;;23.23;55.80;100305.41;5016635;28;20546;-65
2023/06/07 10:22:14;;;;;;;5.00;2.60;;;;;;;23.25;55.93;100319.41;5012255;28;20180;-65
2023/06/07 10:24:59;;;;;;;3.77;2.47;;;;;;;23.25;55.59;100311.59;5025506;28;20435;-65
2023/06/07 10:27:25;;;;;;;3.67;2.53;;;;;;;23.25;55.32;100314.50;5012323;28;21233;-65
2023/06/07 10:29:59;;;;;;;3.53;2.30;;;;;;;23.25;55.42;100302.13;5023658;28;20412;-65
2023/06/07 10:32:26;;;;;;;3.40;2.60;;;;;;;23.26;55.44;100301.72;5017597;28;20443;-65
2023/06/07 10:34:53;;;;;;;4.20;2.53;;;;;;;23.26;55.19;100309.53;5010632;28;20469;-65
2023/06/07 10:37:18;;;;;;;4.60;2.20;;;;;;;23.27;55.31;100297.59;5010704;28;20466;-65
2023/06/07 10:39:43;;;;;;;7.40;2.83;;;;;;;23.26;55.27;100301.72;5012942;28;20466;-65
2023/06/07 10:42:09;;;;;;;3.33;2.23;;;;;;;23.28;55.33;100312.84;5024072;28;20227;-65
2023/06/07 10:44:35;;;;;;;4.17;2.73;;;;;;;23.26;54.73;100304.59;4991764;28;20189;-65
2023/06/07 10:47:26;;;;;;;5.57;3.07;;;;;;;23.26;55.16;100293.09;4998382;28;20230;-65
2023/06/07 10:49:52;;;;;;;3.70;2.27;;;;;;;23.27;55.20;100303.38;5013944;28;20432;-65
2023/06/07 10:52:18;;;;;;;3.93;2.73;;;;;;;23.27;55.23;100291.84;5006756;28;20439;-65
2023/06/07 10:54:44;;;;;;;3.90;2.50;;;;;;;23.26;55.05;100298.84;5009143;28;20222;-65
2023/06/07 10:57:09;;;;;;;4.77;2.60;;;;;;;23.27;55.07;100300.47;5015722;28;20669;-65
2023/06/07 10:59:36;;;;;;;4.30;2.90;;;;;;;23.27;54.84;100293.88;5016262;28;20212;-65
2023/06/07 11:02:23;;;;;;;4.53;2.93;;;;;;;23.27;55.02;100293.88;5000408;28;20181;-65
2023/06/07 11:04:49;;;;;;;5.07;2.30;;;;;;;23.26;55.44;100281.56;5011406;28;20455;-65
2023/06/07 11:07:22;;;;;;;5.50;2.73;;;;;;;23.28;54.91;100284.84;5014372;28;20432;-65
2023/06/07 11:10:00;;;;;;;3.37;2.40;;;;;;;23.29;54.50;100277.84;5015878;28;20429;-65
2023/06/07 11:12:40;;;;;;;5.40;2.50;;;;;;;23.27;54.63;100288.97;5016680;28;20522;-65
2023/06/07 11:15:17;;;;;;;3.47;2.30;;;;;;;23.29;54.68;100282.78;5015972;28;20493;-65
2023/06/07 11:17:59;;;;;;;7.23;2.80;;;;;;;23.28;54.44;100281.94;5015901;28;20448;-65
2023/06/07 11:20:40;;;;;;;5.13;2.63;;;;;;;23.28;54.46;100278.28;5019868;28;20470;-65
2023/06/07 11:23:27;;;;;;;4.13;2.67;;;;;;;23.28;54.67;100266.75;5013505;28;20538;-65